Alp Winger — PBIU — position and weather

sailwx.info

Track history (hours):
 
Tides and Currents Weather Stations Pressure Air Temp Water Temp Dewpoint Dewpoint Depression Visibility Wind Speed Wind Dir Waves Ship Positions

Alp Winger

Last reported at 2018-Jan-24 07:31 UTC. Time now 2018-Jan-24 07:36 UTC.
Position N 36°07' E 014°18'.

Length 65 m; draft 6.3 m.

Type: Tug. MMSI: 244830808.

Date/timePositionNaut miles runAvg speedWind from/ knotsBaromVisibWave heightAir tempDewpointWater temp
2018-Jan-24 07:31N 36°07' E 014°18'611.3
2018-Jan-24 07:01N 36°06' E 014°25'611.1
2018-Jan-24 06:30N 36°04' E 014°32'2 4.3
2018-Jan-24 06:01N 36°05' E 014°29'4 7.4
2018-Jan-24 05:31N 36°07' E 014°26'4 8.1
2018-Jan-24 05:01N 36°10' E 014°22'4 8.7
2018-Jan-24 04:30N 36°11' E 014°17'4 8.7
2018-Jan-24 04:01N 36°14' E 014°12'4 8.6
2018-Jan-24 03:31N 36°16' E 014°07'4 8.1
2018-Jan-24 03:01N 36°18' E 014°03'4 7.7
2018-Jan-24 02:31N 36°20' E 013°59'4 7.7
2018-Jan-24 02:01N 36°22' E 013°55'4 7.7
2018-Jan-24 01:31N 36°24' E 013°51'4 7.7
2018-Jan-24 01:01N 36°26' E 013°47'4 7.9
2018-Jan-24 00:31N 36°28' E 013°42'4 7.8
2018-Jan-24 00:01N 36°30' E 013°38'4 7.8
2018-Jan-23 23:30N 36°32' E 013°34'4 7.7
2018-Jan-23 23:01N 36°33' E 013°30'4 7.7
2018-Jan-23 22:31N 36°35' E 013°26'4 7.7
2018-Jan-23 22:01N 36°37' E 013°21'4 7.9
2018-Jan-23 21:31N 36°39' E 013°17'4 8.1
2018-Jan-23 21:01N 36°41' E 013°13'4 8.0
2018-Jan-23 20:31N 36°43' E 013°09'4 7.9
2018-Jan-23 20:01N 36°45' E 013°04'4 8.1
2018-Jan-23 19:31N 36°47' E 012°60'4 8.1
2018-Jan-23 19:01N 36°49' E 012°55'4 8.3
2018-Jan-23 18:31N 36°51' E 012°51'4 8.1
2018-Jan-23 18:01N 36°53' E 012°46'4 8.1
2018-Jan-23 17:31N 36°55' E 012°42'4 8.0
2018-Jan-23 17:01N 36°57' E 012°38'4 8.9
2018-Jan-23 16:30N 36°58' E 012°32'510.7
2018-Jan-23 16:01N 36°60' E 012°26'5 9.5
2018-Jan-23 15:31N 37°01' E 012°20'4 8.8
2018-Jan-23 15:01N 37°03' E 012°15'4 8.9
2018-Jan-23 14:31N 37°04' E 012°10'5 9.0
2018-Jan-23 14:01N 37°05' E 012°04'5 9.1
2018-Jan-23 13:31N 37°07' E 011°59'5 9.1
2018-Jan-23 13:01N 37°09' E 011°54'4 8.8
2018-Jan-23 12:31N 37°10' E 011°48'4 8.1
2018-Jan-23 12:01N 37°11' E 011°43'4 8.3
2018-Jan-23 11:31N 37°12' E 011°39'4 8.6
2018-Jan-23 11:01N 37°14' E 011°34'4 8.6
2018-Jan-23 10:31N 37°15' E 011°28'4 8.3
2018-Jan-23 10:01N 37°16' E 011°23'4 8.3
2018-Jan-23 09:31N 37°18' E 011°18'4 8.1
2018-Jan-23 09:01N 37°19' E 011°14'4 7.9
2018-Jan-23 08:30N 37°21' E 011°10'4 8.3
2018-Jan-23 08:01N 37°23' E 011°05'4 8.9
2018-Jan-23 07:31N 37°24' E 010°59'5 9.7
2018-Jan-23 07:01N 37°25' E 010°53'5 9.5
2018-Jan-23 06:30N 37°26' E 010°48'5 9.5
2018-Jan-23 06:00N 37°27' E 010°42'5 9.8
2018-Jan-23 05:31N 37°28' E 010°36'5 9.9
2018-Jan-23 05:01N 37°30' E 010°30'510.3
2018-Jan-23 04:31N 37°31' E 010°23'510.3
2018-Jan-23 04:01N 37°32' E 010°17'5 9.5
2018-Jan-23 03:30N 37°33' E 010°11'5 9.5
2018-Jan-23 03:01N 37°33' E 010°05'5 9.5
2018-Jan-23 02:31N 37°34' E 009°59'5 9.6
2018-Jan-23 02:01N 37°34' E 009°53'5 9.7
2018-Jan-23 01:31N 37°34' E 009°47'5 9.7
2018-Jan-23 01:01N 37°35' E 009°41'5 9.4
2018-Jan-23 00:31N 37°35' E 009°35'510.0
2018-Jan-23 00:01N 37°36' E 009°29'510.2
2018-Jan-22 23:31N 37°36' E 009°22'510.0
2018-Jan-22 23:01N 37°36' E 009°16'5 9.9
2018-Jan-22 22:31N 37°37' E 009°10'5 9.9
2018-Jan-22 22:01N 37°37' E 009°04'5 9.5
2018-Jan-22 21:31N 37°38' E 008°58'5 9.5
2018-Jan-22 21:01N 37°37' E 008°52'5 9.3
2018-Jan-22 20:30N 37°37' E 008°46'5 9.3
2018-Jan-22 20:01N 37°37' E 008°40'5 9.2
2018-Jan-22 19:31N 37°37' E 008°34'5 9.1
2018-Jan-22 19:00N 37°36' E 008°28'5 9.3
2018-Jan-22 18:31N 37°36' E 008°23'5 9.3
2018-Jan-22 18:01N 37°36' E 008°17'5 9.2
2018-Jan-22 17:31N 37°35' E 008°11'4 8.8
2018-Jan-22 17:01N 37°35' E 008°05'4 8.4
2018-Jan-22 16:31N 37°35' E 008°00'5 9.5
2018-Jan-22 16:00N 37°35' E 007°54'4 8.6
2018-Jan-22 15:31N 37°35' E 007°49'4 8.9
2018-Jan-22 15:01N 37°35' E 007°43'4 9.0
2018-Jan-22 14:31N 37°34' E 007°37'5 9.6
2018-Jan-22 14:01N 37°34' E 007°31'510.6
2018-Jan-22 13:31N 37°33' E 007°25'510.4
2018-Jan-22 13:01N 37°33' E 007°18'510.5
2018-Jan-22 12:31N 37°33' E 007°12'510.4
2018-Jan-22 12:01N 37°33' E 007°05'510.6
2018-Jan-22 11:31N 37°33' E 006°58'510.1
2018-Jan-22 11:01N 37°32' E 006°52'5 9.2
2018-Jan-22 10:31N 37°32' E 006°46'5 9.2
2018-Jan-22 10:01N 37°32' E 006°40'5 9.3
2018-Jan-22 09:30N 37°31' E 006°35'5 9.5
2018-Jan-22 09:01N 37°31' E 006°29'5 9.3
2018-Jan-22 08:31N 37°31' E 006°23'5 9.1
2018-Jan-22 08:01N 37°30' E 006°17'4 8.9
2018-Jan-22 07:31N 37°30' E 006°12'5 9.0
2018-Jan-22 07:01N 37°30' E 006°06'5 9.1
2018-Jan-22 06:31N 37°30' E 006°00'5 9.2
2018-Jan-22 06:01N 37°29' E 005°54'4 9.0
2018-Jan-22 05:31N 37°29' E 005°49'4 8.9
2018-Jan-22 05:01N 37°29' E 005°43'5 9.1
2018-Jan-22 04:31N 37°29' E 005°37'5 9.1
2018-Jan-22 04:01N 37°28' E 005°32'5 9.4
2018-Jan-22 03:31N 37°28' E 005°26'5 9.5
2018-Jan-22 03:01N 37°28' E 005°20'5 9.2
2018-Jan-22 02:31N 37°27' E 005°14'5 9.4
2018-Jan-22 02:01N 37°27' E 005°08'5 9.3
2018-Jan-22 01:31N 37°27' E 005°02'5 9.4
2018-Jan-22 01:01N 37°27' E 004°56'5 9.7
2018-Jan-22 00:31N 37°26' E 004°50'5 9.7
2018-Jan-22 00:01N 37°26' E 004°44'5 9.6
2018-Jan-21 23:31N 37°26' E 004°38'5 9.8
2018-Jan-21 23:01N 37°25' E 004°32'5 9.9
2018-Jan-21 22:31N 37°25' E 004°26'5 9.9
2018-Jan-21 22:01N 37°25' E 004°19'5 9.9
2018-Jan-21 21:30N 37°25' E 004°13'5 9.6
2018-Jan-21 21:00N 37°24' E 004°07'5 9.1
2018-Jan-21 20:31N 37°24' E 004°01'4 8.7
2018-Jan-21 20:01N 37°24' E 003°56'4 8.9
2018-Jan-21 19:31N 37°23' E 003°50'5 9.2
2018-Jan-21 19:01N 37°23' E 003°45'5 9.3
2018-Jan-21 18:31N 37°23' E 003°39'5 9.2
2018-Jan-21 18:01N 37°23' E 003°33'5 9.1
2018-Jan-21 17:31N 37°23' E 003°27'5 9.1
2018-Jan-21 17:00N 37°22' E 003°22'5 9.4
2018-Jan-21 16:31N 37°21' E 003°16'510.4
2018-Jan-21 16:01N 37°20' E 003°10'611.0
2018-Jan-21 15:31N 37°18' E 003°03'4 8.6
2018-Jan-21 15:01N 37°17' E 002°58'4 8.3
2018-Jan-21 14:31N 37°16' E 002°53'4 8.2
2018-Jan-21 14:01N 37°15' E 002°48'4 8.7
2018-Jan-21 13:31N 37°14' E 002°43'4 9.0
2018-Jan-21 13:01N 37°13' E 002°37'10 9.8
2018-Jan-21 12:01N 37°11' E 002°25'510.5
2018-Jan-21 11:31N 37°10' E 002°19'5 9.8
2018-Jan-21 11:01N 37°09' E 002°13'5 9.6
2018-Jan-21 10:31N 37°08' E 002°07'5 9.5
2018-Jan-21 10:00N 37°07' E 002°01'5 9.2
2018-Jan-21 09:31N 37°06' E 001°55'4 9.0
2018-Jan-21 09:01N 37°05' E 001°50'4 8.6
2018-Jan-21 08:31N 37°04' E 001°45'4 8.9
2018-Jan-21 08:01N 37°03' E 001°39'5 9.4
2018-Jan-21 07:31N 37°02' E 001°34'5 9.8
2018-Jan-21 07:01N 37°01' E 001°27'510.0
2018-Jan-21 06:31N 36°60' E 001°21'510.0
2018-Jan-21 06:00N 36°59' E 001°15'510.4
2018-Jan-21 05:31N 36°57' E 001°09'5 9.6
2018-Jan-21 05:01N 36°56' E 001°03'5 9.4
2018-Jan-21 04:31N 36°55' E 000°57'5 9.5
2018-Jan-21 04:01N 36°54' E 000°52'5 9.7
2018-Jan-21 03:31N 36°53' E 000°46'5 9.7
2018-Jan-21 03:01N 36°52' E 000°40'510.1
2018-Jan-21 02:31N 36°51' E 000°34'5 9.8
2018-Jan-21 02:00N 36°50' E 000°28'5 9.7
2018-Jan-21 01:31N 36°49' E 000°22'5 9.8
2018-Jan-21 01:01N 36°48' E 000°16'5 9.8
2018-Jan-21 00:31N 36°47' E 000°10'5 9.9
2018-Jan-21 00:01N 36°45' E 000°04'5 9.9
2018-Jan-20 23:31N 36°44' W 000°02'5 9.9
2018-Jan-20 23:01N 36°44' W 000°08'5 9.8
2018-Jan-20 22:31N 36°42' W 000°14'5 9.6
2018-Jan-20 22:01N 36°41' W 000°20'5 9.8
2018-Jan-20 21:31N 36°40' W 000°26'5 9.5
2018-Jan-20 21:01N 36°39' W 000°32'5 9.4
2018-Jan-20 20:31N 36°38' W 000°37'5 9.3
2018-Jan-20 20:01N 36°37' W 000°43'5 9.3
2018-Jan-20 19:31N 36°36' W 000°49'5 9.5
2018-Jan-20 19:01N 36°35' W 000°54'5 9.7
2018-Jan-20 18:31N 36°34' W 001°00'611.3
2018-Jan-20 18:01N 36°33' W 001°07'4 8.5
2018-Jan-20 17:31N 36°32' W 001°12'4 8.7
2018-Jan-20 17:01N 36°31' W 001°18'4 8.7
2018-Jan-20 16:30N 36°30' W 001°23'4 9.0
2018-Jan-20 16:01N 36°29' W 001°28'4 8.9
2018-Jan-20 15:31N 36°28' W 001°34'5 9.2
2018-Jan-20 15:00N 36°27' W 001°39'5 9.3
2018-Jan-20 14:31N 36°26' W 001°45'5 9.5
2018-Jan-20 14:01N 36°25' W 001°51'5 9.7
2018-Jan-20 13:31N 36°24' W 001°57'5 9.8
2018-Jan-20 13:01N 36°22' W 002°02'5 9.8
2018-Jan-20 12:31N 36°21' W 002°08'5 9.9
2018-Jan-20 12:01N 36°21' W 002°15'5 9.9
2018-Jan-20 11:31N 36°20' W 002°21'5 9.9
2018-Jan-20 11:01N 36°20' W 002°27'5 9.8
2018-Jan-20 10:31N 36°20' W 002°33'5 9.7
2018-Jan-20 10:01N 36°19' W 002°39'5 9.6
2018-Jan-20 09:31N 36°19' W 002°45'5 9.6
2018-Jan-20 09:01N 36°18' W 002°51'4 8.6
2018-Jan-20 08:31N 36°17' W 002°56'4 8.1
2018-Jan-20 08:01N 36°17' W 003°01'5 9.2
2018-Jan-20 07:31N 36°16' W 003°07'5 9.2
2018-Jan-20 07:01N 36°16' W 003°12'5 9.4
2018-Jan-20 06:30N 36°15' W 003°18'5 9.4
2018-Jan-20 06:01N 36°15' W 003°24'5 9.4
2018-Jan-20 05:31N 36°16' W 003°30'5 9.7
2018-Jan-20 05:01N 36°15' W 003°36'510.1
2018-Jan-20 04:31N 36°15' W 003°42'510.4
2018-Jan-20 04:01N 36°14' W 003°48'510.7
2018-Jan-20 03:31N 36°14' W 003°55'611.6
2018-Jan-20 03:01N 36°13' W 004°02'611.5
2018-Jan-20 02:31N 36°13' W 004°09'611.2
2018-Jan-20 02:01N 36°12' W 004°16'510.9
2018-Jan-20 01:31N 36°12' W 004°23'510.8
2018-Jan-20 01:01N 36°12' W 004°29'510.6
2018-Jan-20 00:30N 36°11' W 004°36'510.5
2018-Jan-20 00:01N 36°11' W 004°43'510.5
2018-Jan-19 23:31N 36°10' W 004°49'510.2
2018-Jan-19 23:01N 36°10' W 004°55'5 9.8
2018-Jan-19 22:31N 36°09' W 005°01'5 9.1
2018-Jan-19 22:01N 36°09' W 005°07'5 9.5
2018-Jan-19 21:31N 36°08' W 005°13'4 8.7
2018-Jan-19 21:01N 36°08' W 005°18'0 0.1
2018-Jan-19 20:31N 36°08' W 005°18'0 0.2
2018-Jan-19 20:01N 36°08' W 005°18'0 0.0
2018-Jan-19 19:31N 36°08' W 005°18'0 0.0
2018-Jan-19 19:01N 36°08' W 005°18'0 0.0
2018-Jan-19 18:31N 36°08' W 005°18'0 0.0
2018-Jan-19 18:01N 36°08' W 005°18'0 0.1
2018-Jan-19 17:31N 36°08' W 005°18'0 0.0
2018-Jan-19 17:01N 36°08' W 005°18'0 0.0
2018-Jan-19 16:31N 36°08' W 005°18'0 0.1
2018-Jan-19 16:01N 36°08' W 005°18'0 0.2
2018-Jan-19 15:31N 36°08' W 005°18'0 0.0
2018-Jan-19 15:01N 36°08' W 005°18'0 0.1
2018-Jan-19 14:31N 36°08' W 005°18'0 0.0
2018-Jan-19 14:01N 36°08' W 005°18'0 0.0
2018-Jan-19 13:31N 36°08' W 005°18'0 0.1
2018-Jan-19 13:01N 36°08' W 005°18'0 0.0
2018-Jan-19 12:31N 36°08' W 005°18'0 0.1
2018-Jan-19 12:01N 36°08' W 005°18'0 0.0
2018-Jan-19 11:31N 36°08' W 005°18'0 0.0
2018-Jan-19 11:01N 36°08' W 005°18'0 0.0
2018-Jan-19 10:30N 36°08' W 005°18'0 0.0
2018-Jan-19 10:01N 36°08' W 005°18'0 0.0
2018-Jan-19 09:31N 36°08' W 005°18'0 0.0
2018-Jan-19 09:01N 36°08' W 005°18'0 0.0
2018-Jan-19 08:31N 36°08' W 005°18'0 0.0
2018-Jan-19 08:01N 36°08' W 005°18'0 0.1
2018-Jan-19 07:31N 36°08' W 005°18'2 3.3
2018-Jan-19 07:01N 36°07' W 005°19'4 7.5
2018-Jan-19 06:31N 36°06' W 005°24'3 5.7
2018-Jan-19 06:01N 36°08' W 005°26'0 1.0
2018-Jan-19 05:31N 36°08' W 005°26'0 0.0
2018-Jan-19 05:01N 36°08' W 005°26'0 0.0
2018-Jan-19 04:31N 36°08' W 005°26'0 0.0
2018-Jan-19 04:01N 36°08' W 005°26'0 0.0
2018-Jan-19 03:31N 36°08' W 005°26'0 0.0
2018-Jan-19 03:01N 36°08' W 005°26'0 0.0
2018-Jan-19 02:31N 36°08' W 005°26'0 0.0
2018-Jan-19 02:01N 36°08' W 005°26'0 0.0
2018-Jan-19 01:31N 36°08' W 005°26'0 0.0
2018-Jan-19 01:01N 36°08' W 005°26'0 0.0
2018-Jan-19 00:31N 36°08' W 005°26'0 0.0
2018-Jan-19 00:01N 36°08' W 005°26'0 0.0
2018-Jan-18 23:31N 36°08' W 005°26'0 0.0
2018-Jan-18 23:01N 36°08' W 005°26'0 0.0
2018-Jan-18 22:31N 36°08' W 005°26'0 0.0
2018-Jan-18 22:01N 36°08' W 005°26'0 0.0
2018-Jan-18 21:31N 36°08' W 005°26'0 0.0
2018-Jan-18 21:01N 36°08' W 005°26'0 0.0
2018-Jan-18 20:31N 36°08' W 005°26'0 0.0
2018-Jan-18 20:01N 36°08' W 005°26'0 0.0
2018-Jan-18 19:31N 36°08' W 005°26'0 0.0
2018-Jan-18 19:01N 36°08' W 005°26'0 0.0
2018-Jan-18 18:31N 36°08' W 005°26'0 0.0
2018-Jan-18 18:01N 36°08' W 005°26'0 1.0
2018-Jan-18 17:31N 36°08' W 005°26'2 3.6
2018-Jan-18 17:01N 36°08' W 005°24'4 7.2
2018-Jan-18 16:31N 36°05' W 005°22'3 6.5
2018-Jan-18 16:01N 36°07' W 005°18'1 1.6
2018-Jan-18 15:31N 36°08' W 005°19'0 0.0
2018-Jan-18 15:01N 36°08' W 005°19'0 0.0
2018-Jan-18 14:31N 36°08' W 005°19'0 0.0
2018-Jan-18 14:01N 36°08' W 005°19'0 0.0
2018-Jan-18 13:31N 36°08' W 005°19'0 0.1
2018-Jan-18 13:01N 36°08' W 005°18'0 0.0
2018-Jan-18 12:31N 36°08' W 005°18'0 0.0
2018-Jan-18 12:01N 36°08' W 005°18'0 0.0
2018-Jan-18 11:31N 36°08' W 005°18'0 0.0
2018-Jan-18 11:01N 36°08' W 005°18'0 0.0
2018-Jan-18 10:31N 36°08' W 005°18'0 0.4
2018-Jan-18 10:01N 36°08' W 005°18'0 0.0
2018-Jan-18 09:31N 36°08' W 005°18'0 0.0
2018-Jan-18 09:01N 36°08' W 005°18'0 0.0
2018-Jan-18 08:31N 36°08' W 005°18'0 0.0
2018-Jan-18 08:01N 36°08' W 005°18'0 0.0
2018-Jan-18 07:31N 36°08' W 005°18'0 0.0
2018-Jan-18 07:01N 36°08' W 005°18'0 0.0
2018-Jan-18 06:31N 36°08' W 005°18'0 0.0
2018-Jan-18 06:01N 36°08' W 005°18'0 0.0
2018-Jan-18 05:31N 36°08' W 005°18'0 0.0
2018-Jan-18 05:01N 36°08' W 005°18'0 0.0
2018-Jan-18 04:31N 36°08' W 005°18'0 0.0
2018-Jan-18 04:01N 36°08' W 005°18'0 0.0
2018-Jan-18 03:31N 36°08' W 005°18'0 0.0
2018-Jan-18 03:01N 36°08' W 005°18'0 0.0
2018-Jan-18 02:31N 36°08' W 005°18'0 0.0
2018-Jan-18 02:01N 36°08' W 005°18'0 0.0
2018-Jan-18 01:31N 36°08' W 005°18'0 0.0
2018-Jan-18 01:01N 36°08' W 005°18'0 0.0
2018-Jan-18 00:01N 36°08' W 005°18'0 0.0
2018-Jan-17 23:58N 36°08' W 005°18'  
Track history (hours):
 
Tides and Currents Weather Stations Pressure Air Temp Water Temp Dewpoint Dewpoint Depression Visibility Wind Speed Wind Dir Waves Ship Positions

Alp Winger

Last reported at 2018-Jan-24 07:31 UTC. Time now 2018-Jan-24 07:36 UTC.
Position N 36°07' E 014°18'.

Length 65 m; draft 6.3 m.

Type: Tug. MMSI: 244830808.

Date/timePositionNaut miles runAvg speedWind from/ knotsBaromVisibWave heightAir tempDewpointWater temp
2018-Jan-24 07:31N 36°07' E 014°18'611.3
2018-Jan-24 07:01N 36°06' E 014°25'611.1
2018-Jan-24 06:30N 36°04' E 014°32'2 4.3
2018-Jan-24 06:01N 36°05' E 014°29'4 7.4
2018-Jan-24 05:31N 36°07' E 014°26'4 8.1
2018-Jan-24 05:01N 36°10' E 014°22'4 8.7
2018-Jan-24 04:30N 36°11' E 014°17'4 8.7
2018-Jan-24 04:01N 36°14' E 014°12'4 8.6
2018-Jan-24 03:31N 36°16' E 014°07'4 8.1
2018-Jan-24 03:01N 36°18' E 014°03'4 7.7
2018-Jan-24 02:31N 36°20' E 013°59'4 7.7
2018-Jan-24 02:01N 36°22' E 013°55'4 7.7
2018-Jan-24 01:31N 36°24' E 013°51'4 7.7
2018-Jan-24 01:01N 36°26' E 013°47'4 7.9
2018-Jan-24 00:31N 36°28' E 013°42'4 7.8
2018-Jan-24 00:01N 36°30' E 013°38'4 7.8
2018-Jan-23 23:30N 36°32' E 013°34'4 7.7
2018-Jan-23 23:01N 36°33' E 013°30'4 7.7
2018-Jan-23 22:31N 36°35' E 013°26'4 7.7
2018-Jan-23 22:01N 36°37' E 013°21'4 7.9
2018-Jan-23 21:31N 36°39' E 013°17'4 8.1
2018-Jan-23 21:01N 36°41' E 013°13'4 8.0
2018-Jan-23 20:31N 36°43' E 013°09'4 7.9
2018-Jan-23 20:01N 36°45' E 013°04'4 8.1
2018-Jan-23 19:31N 36°47' E 012°60'4 8.1
2018-Jan-23 19:01N 36°49' E 012°55'4 8.3
2018-Jan-23 18:31N 36°51' E 012°51'4 8.1
2018-Jan-23 18:01N 36°53' E 012°46'4 8.1
2018-Jan-23 17:31N 36°55' E 012°42'4 8.0
2018-Jan-23 17:01N 36°57' E 012°38'4 8.9
2018-Jan-23 16:30N 36°58' E 012°32'510.7
2018-Jan-23 16:01N 36°60' E 012°26'5 9.5
2018-Jan-23 15:31N 37°01' E 012°20'4 8.8
2018-Jan-23 15:01N 37°03' E 012°15'4 8.9
2018-Jan-23 14:31N 37°04' E 012°10'5 9.0
2018-Jan-23 14:01N 37°05' E 012°04'5 9.1
2018-Jan-23 13:31N 37°07' E 011°59'5 9.1
2018-Jan-23 13:01N 37°09' E 011°54'4 8.8
2018-Jan-23 12:31N 37°10' E 011°48'4 8.1
2018-Jan-23 12:01N 37°11' E 011°43'4 8.3
2018-Jan-23 11:31N 37°12' E 011°39'4 8.6
2018-Jan-23 11:01N 37°14' E 011°34'4 8.6
2018-Jan-23 10:31N 37°15' E 011°28'4 8.3
2018-Jan-23 10:01N 37°16' E 011°23'4 8.3
2018-Jan-23 09:31N 37°18' E 011°18'4 8.1
2018-Jan-23 09:01N 37°19' E 011°14'4 7.9
2018-Jan-23 08:30N 37°21' E 011°10'4 8.3
2018-Jan-23 08:01N 37°23' E 011°05'4 8.9
2018-Jan-23 07:31N 37°24' E 010°59'5 9.7
2018-Jan-23 07:01N 37°25' E 010°53'5 9.5
2018-Jan-23 06:30N 37°26' E 010°48'5 9.5
2018-Jan-23 06:00N 37°27' E 010°42'5 9.8
2018-Jan-23 05:31N 37°28' E 010°36'5 9.9
2018-Jan-23 05:01N 37°30' E 010°30'510.3
2018-Jan-23 04:31N 37°31' E 010°23'510.3
2018-Jan-23 04:01N 37°32' E 010°17'5 9.5
2018-Jan-23 03:30N 37°33' E 010°11'5 9.5
2018-Jan-23 03:01N 37°33' E 010°05'5 9.5
2018-Jan-23 02:31N 37°34' E 009°59'5 9.6
2018-Jan-23 02:01N 37°34' E 009°53'5 9.7
2018-Jan-23 01:31N 37°34' E 009°47'5 9.7
2018-Jan-23 01:01N 37°35' E 009°41'5 9.4
2018-Jan-23 00:31N 37°35' E 009°35'510.0
2018-Jan-23 00:01N 37°36' E 009°29'510.2
2018-Jan-22 23:31N 37°36' E 009°22'510.0
2018-Jan-22 23:01N 37°36' E 009°16'5 9.9
2018-Jan-22 22:31N 37°37' E 009°10'5 9.9
2018-Jan-22 22:01N 37°37' E 009°04'5 9.5
2018-Jan-22 21:31N 37°38' E 008°58'5 9.5
2018-Jan-22 21:01N 37°37' E 008°52'5 9.3
2018-Jan-22 20:30N 37°37' E 008°46'5 9.3
2018-Jan-22 20:01N 37°37' E 008°40'5 9.2
2018-Jan-22 19:31N 37°37' E 008°34'5 9.1
2018-Jan-22 19:00N 37°36' E 008°28'5 9.3
2018-Jan-22 18:31N 37°36' E 008°23'5 9.3
2018-Jan-22 18:01N 37°36' E 008°17'5 9.2
2018-Jan-22 17:31N 37°35' E 008°11'4 8.8
2018-Jan-22 17:01N 37°35' E 008°05'4 8.4
2018-Jan-22 16:31N 37°35' E 008°00'5 9.5
2018-Jan-22 16:00N 37°35' E 007°54'4 8.6
2018-Jan-22 15:31N 37°35' E 007°49'4 8.9
2018-Jan-22 15:01N 37°35' E 007°43'4 9.0
2018-Jan-22 14:31N 37°34' E 007°37'5 9.6
2018-Jan-22 14:01N 37°34' E 007°31'510.6
2018-Jan-22 13:31N 37°33' E 007°25'510.4
2018-Jan-22 13:01N 37°33' E 007°18'510.5
2018-Jan-22 12:31N 37°33' E 007°12'510.4
2018-Jan-22 12:01N 37°33' E 007°05'510.6
2018-Jan-22 11:31N 37°33' E 006°58'510.1
2018-Jan-22 11:01N 37°32' E 006°52'5 9.2
2018-Jan-22 10:31N 37°32' E 006°46'5 9.2
2018-Jan-22 10:01N 37°32' E 006°40'5 9.3
2018-Jan-22 09:30N 37°31' E 006°35'5 9.5
2018-Jan-22 09:01N 37°31' E 006°29'5 9.3
2018-Jan-22 08:31N 37°31' E 006°23'5 9.1
2018-Jan-22 08:01N 37°30' E 006°17'4 8.9
2018-Jan-22 07:31N 37°30' E 006°12'5 9.0
2018-Jan-22 07:01N 37°30' E 006°06'5 9.1
2018-Jan-22 06:31N 37°30' E 006°00'5 9.2
2018-Jan-22 06:01N 37°29' E 005°54'4 9.0
2018-Jan-22 05:31N 37°29' E 005°49'4 8.9
2018-Jan-22 05:01N 37°29' E 005°43'5 9.1
2018-Jan-22 04:31N 37°29' E 005°37'5 9.1
2018-Jan-22 04:01N 37°28' E 005°32'5 9.4
2018-Jan-22 03:31N 37°28' E 005°26'5 9.5
2018-Jan-22 03:01N 37°28' E 005°20'5 9.2
2018-Jan-22 02:31N 37°27' E 005°14'5 9.4
2018-Jan-22 02:01N 37°27' E 005°08'5 9.3
2018-Jan-22 01:31N 37°27' E 005°02'5 9.4
2018-Jan-22 01:01N 37°27' E 004°56'5 9.7
2018-Jan-22 00:31N 37°26' E 004°50'5 9.7
2018-Jan-22 00:01N 37°26' E 004°44'5 9.6
2018-Jan-21 23:31N 37°26' E 004°38'5 9.8
2018-Jan-21 23:01N 37°25' E 004°32'5 9.9
2018-Jan-21 22:31N 37°25' E 004°26'5 9.9
2018-Jan-21 22:01N 37°25' E 004°19'5 9.9
2018-Jan-21 21:30N 37°25' E 004°13'5 9.6
2018-Jan-21 21:00N 37°24' E 004°07'5 9.1
2018-Jan-21 20:31N 37°24' E 004°01'4 8.7
2018-Jan-21 20:01N 37°24' E 003°56'4 8.9
2018-Jan-21 19:31N 37°23' E 003°50'5 9.2
2018-Jan-21 19:01N 37°23' E 003°45'5 9.3
2018-Jan-21 18:31N 37°23' E 003°39'5 9.2
2018-Jan-21 18:01N 37°23' E 003°33'5 9.1
2018-Jan-21 17:31N 37°23' E 003°27'5 9.1
2018-Jan-21 17:00N 37°22' E 003°22'5 9.4
2018-Jan-21 16:31N 37°21' E 003°16'510.4
2018-Jan-21 16:01N 37°20' E 003°10'611.0
2018-Jan-21 15:31N 37°18' E 003°03'4 8.6
2018-Jan-21 15:01N 37°17' E 002°58'4 8.3
2018-Jan-21 14:31N 37°16' E 002°53'4 8.2
2018-Jan-21 14:01N 37°15' E 002°48'4 8.7
2018-Jan-21 13:31N 37°14' E 002°43'4 9.0
2018-Jan-21 13:01N 37°13' E 002°37'10 9.8
2018-Jan-21 12:01N 37°11' E 002°25'510.5
2018-Jan-21 11:31N 37°10' E 002°19'5 9.8
2018-Jan-21 11:01N 37°09' E 002°13'5 9.6
2018-Jan-21 10:31N 37°08' E 002°07'5 9.5
2018-Jan-21 10:00N 37°07' E 002°01'5 9.2
2018-Jan-21 09:31N 37°06' E 001°55'4 9.0
2018-Jan-21 09:01N 37°05' E 001°50'4 8.6
2018-Jan-21 08:31N 37°04' E 001°45'4 8.9
2018-Jan-21 08:01N 37°03' E 001°39'5 9.4
2018-Jan-21 07:31N 37°02' E 001°34'5 9.8
2018-Jan-21 07:01N 37°01' E 001°27'510.0
2018-Jan-21 06:31N 36°60' E 001°21'510.0
2018-Jan-21 06:00N 36°59' E 001°15'510.4
2018-Jan-21 05:31N 36°57' E 001°09'5 9.6
2018-Jan-21 05:01N 36°56' E 001°03'5 9.4
2018-Jan-21 04:31N 36°55' E 000°57'5 9.5
2018-Jan-21 04:01N 36°54' E 000°52'5 9.7
2018-Jan-21 03:31N 36°53' E 000°46'5 9.7
2018-Jan-21 03:01N 36°52' E 000°40'510.1
2018-Jan-21 02:31N 36°51' E 000°34'5 9.8
2018-Jan-21 02:00N 36°50' E 000°28'5 9.7
2018-Jan-21 01:31N 36°49' E 000°22'5 9.8
2018-Jan-21 01:01N 36°48' E 000°16'5 9.8
2018-Jan-21 00:31N 36°47' E 000°10'5 9.9
2018-Jan-21 00:01N 36°45' E 000°04'5 9.9
2018-Jan-20 23:31N 36°44' W 000°02'5 9.9
2018-Jan-20 23:01N 36°44' W 000°08'5 9.8
2018-Jan-20 22:31N 36°42' W 000°14'5 9.6
2018-Jan-20 22:01N 36°41' W 000°20'5 9.8
2018-Jan-20 21:31N 36°40' W 000°26'5 9.5
2018-Jan-20 21:01N 36°39' W 000°32'5 9.4
2018-Jan-20 20:31N 36°38' W 000°37'5 9.3
2018-Jan-20 20:01N 36°37' W 000°43'5 9.3
2018-Jan-20 19:31N 36°36' W 000°49'5 9.5
2018-Jan-20 19:01N 36°35' W 000°54'5 9.7
2018-Jan-20 18:31N 36°34' W 001°00'611.3
2018-Jan-20 18:01N 36°33' W 001°07'4 8.5
2018-Jan-20 17:31N 36°32' W 001°12'4 8.7
2018-Jan-20 17:01N 36°31' W 001°18'4 8.7
2018-Jan-20 16:30N 36°30' W 001°23'4 9.0
2018-Jan-20 16:01N 36°29' W 001°28'4 8.9
2018-Jan-20 15:31N 36°28' W 001°34'5 9.2
2018-Jan-20 15:00N 36°27' W 001°39'5 9.3
2018-Jan-20 14:31N 36°26' W 001°45'5 9.5
2018-Jan-20 14:01N 36°25' W 001°51'5 9.7
2018-Jan-20 13:31N 36°24' W 001°57'5 9.8
2018-Jan-20 13:01N 36°22' W 002°02'5 9.8
2018-Jan-20 12:31N 36°21' W 002°08'5 9.9
2018-Jan-20 12:01N 36°21' W 002°15'5 9.9
2018-Jan-20 11:31N 36°20' W 002°21'5 9.9
2018-Jan-20 11:01N 36°20' W 002°27'5 9.8
2018-Jan-20 10:31N 36°20' W 002°33'5 9.7
2018-Jan-20 10:01N 36°19' W 002°39'5 9.6
2018-Jan-20 09:31N 36°19' W 002°45'5 9.6
2018-Jan-20 09:01N 36°18' W 002°51'4 8.6
2018-Jan-20 08:31N 36°17' W 002°56'4 8.1
2018-Jan-20 08:01N 36°17' W 003°01'5 9.2
2018-Jan-20 07:31N 36°16' W 003°07'5 9.2
2018-Jan-20 07:01N 36°16' W 003°12'5 9.4
2018-Jan-20 06:30N 36°15' W 003°18'5 9.4
2018-Jan-20 06:01N 36°15' W 003°24'5 9.4
2018-Jan-20 05:31N 36°16' W 003°30'5 9.7
2018-Jan-20 05:01N 36°15' W 003°36'510.1
2018-Jan-20 04:31N 36°15' W 003°42'510.4
2018-Jan-20 04:01N 36°14' W 003°48'510.7
2018-Jan-20 03:31N 36°14' W 003°55'611.6
2018-Jan-20 03:01N 36°13' W 004°02'611.5
2018-Jan-20 02:31N 36°13' W 004°09'611.2
2018-Jan-20 02:01N 36°12' W 004°16'510.9
2018-Jan-20 01:31N 36°12' W 004°23'510.8
2018-Jan-20 01:01N 36°12' W 004°29'510.6
2018-Jan-20 00:30N 36°11' W 004°36'510.5
2018-Jan-20 00:01N 36°11' W 004°43'510.5
2018-Jan-19 23:31N 36°10' W 004°49'510.2
2018-Jan-19 23:01N 36°10' W 004°55'5 9.8
2018-Jan-19 22:31N 36°09' W 005°01'5 9.1
2018-Jan-19 22:01N 36°09' W 005°07'5 9.5
2018-Jan-19 21:31N 36°08' W 005°13'4 8.7
2018-Jan-19 21:01N 36°08' W 005°18'0 0.1
2018-Jan-19 20:31N 36°08' W 005°18'0 0.2
2018-Jan-19 20:01N 36°08' W 005°18'0 0.0
2018-Jan-19 19:31N 36°08' W 005°18'0 0.0
2018-Jan-19 19:01N 36°08' W 005°18'0 0.0
2018-Jan-19 18:31N 36°08' W 005°18'0 0.0
2018-Jan-19 18:01N 36°08' W 005°18'0 0.1
2018-Jan-19 17:31N 36°08' W 005°18'0 0.0
2018-Jan-19 17:01N 36°08' W 005°18'0 0.0
2018-Jan-19 16:31N 36°08' W 005°18'0 0.1
2018-Jan-19 16:01N 36°08' W 005°18'0 0.2
2018-Jan-19 15:31N 36°08' W 005°18'0 0.0
2018-Jan-19 15:01N 36°08' W 005°18'0 0.1
2018-Jan-19 14:31N 36°08' W 005°18'0 0.0
2018-Jan-19 14:01N 36°08' W 005°18'0 0.0
2018-Jan-19 13:31N 36°08' W 005°18'0 0.1
2018-Jan-19 13:01N 36°08' W 005°18'0 0.0
2018-Jan-19 12:31N 36°08' W 005°18'0 0.1
2018-Jan-19 12:01N 36°08' W 005°18'0 0.0
2018-Jan-19 11:31N 36°08' W 005°18'0 0.0
2018-Jan-19 11:01N 36°08' W 005°18'0 0.0
2018-Jan-19 10:30N 36°08' W 005°18'0 0.0
2018-Jan-19 10:01N 36°08' W 005°18'0 0.0
2018-Jan-19 09:31N 36°08' W 005°18'0 0.0
2018-Jan-19 09:01N 36°08' W 005°18'0 0.0
2018-Jan-19 08:31N 36°08' W 005°18'0 0.0
2018-Jan-19 08:01N 36°08' W 005°18'0 0.1
2018-Jan-19 07:31N 36°08' W 005°18'2 3.3
2018-Jan-19 07:01N 36°07' W 005°19'4 7.5
2018-Jan-19 06:31N 36°06' W 005°24'3 5.7
2018-Jan-19 06:01N 36°08' W 005°26'0 1.0
2018-Jan-19 05:31N 36°08' W 005°26'0 0.0
2018-Jan-19 05:01N 36°08' W 005°26'0 0.0
2018-Jan-19 04:31N 36°08' W 005°26'0 0.0
2018-Jan-19 04:01N 36°08' W 005°26'0 0.0
2018-Jan-19 03:31N 36°08' W 005°26'0 0.0
2018-Jan-19 03:01N 36°08' W 005°26'0 0.0
2018-Jan-19 02:31N 36°08' W 005°26'0 0.0
2018-Jan-19 02:01N 36°08' W 005°26'0 0.0
2018-Jan-19 01:31N 36°08' W 005°26'0 0.0
2018-Jan-19 01:01N 36°08' W 005°26'0 0.0
2018-Jan-19 00:31N 36°08' W 005°26'0 0.0
2018-Jan-19 00:01N 36°08' W 005°26'0 0.0
2018-Jan-18 23:31N 36°08' W 005°26'0 0.0
2018-Jan-18 23:01N 36°08' W 005°26'0 0.0
2018-Jan-18 22:31N 36°08' W 005°26'0 0.0
2018-Jan-18 22:01N 36°08' W 005°26'0 0.0
2018-Jan-18 21:31N 36°08' W 005°26'0 0.0
2018-Jan-18 21:01N 36°08' W 005°26'0 0.0
2018-Jan-18 20:31N 36°08' W 005°26'0 0.0
2018-Jan-18 20:01N 36°08' W 005°26'0 0.0
2018-Jan-18 19:31N 36°08' W 005°26'0 0.0
2018-Jan-18 19:01N 36°08' W 005°26'0 0.0
2018-Jan-18 18:31N 36°08' W 005°26'0 0.0
2018-Jan-18 18:01N 36°08' W 005°26'0 1.0
2018-Jan-18 17:31N 36°08' W 005°26'2 3.6
2018-Jan-18 17:01N 36°08' W 005°24'4 7.2
2018-Jan-18 16:31N 36°05' W 005°22'3 6.5
2018-Jan-18 16:01N 36°07' W 005°18'1 1.6
2018-Jan-18 15:31N 36°08' W 005°19'0 0.0
2018-Jan-18 15:01N 36°08' W 005°19'0 0.0
2018-Jan-18 14:31N 36°08' W 005°19'0 0.0
2018-Jan-18 14:01N 36°08' W 005°19'0 0.0
2018-Jan-18 13:31N 36°08' W 005°19'0 0.1
2018-Jan-18 13:01N 36°08' W 005°18'0 0.0
2018-Jan-18 12:31N 36°08' W 005°18'0 0.0
2018-Jan-18 12:01N 36°08' W 005°18'0 0.0
2018-Jan-18 11:31N 36°08' W 005°18'0 0.0
2018-Jan-18 11:01N 36°08' W 005°18'0 0.0
2018-Jan-18 10:31N 36°08' W 005°18'0 0.4
2018-Jan-18 10:01N 36°08' W 005°18'0 0.0
2018-Jan-18 09:31N 36°08' W 005°18'0 0.0
2018-Jan-18 09:01N 36°08' W 005°18'0 0.0
2018-Jan-18 08:31N 36°08' W 005°18'0 0.0
2018-Jan-18 08:01N 36°08' W 005°18'0 0.0
2018-Jan-18 07:31N 36°08' W 005°18'0 0.0
2018-Jan-18 07:01N 36°08' W 005°18'0 0.0
2018-Jan-18 06:31N 36°08' W 005°18'0 0.0
2018-Jan-18 06:01N 36°08' W 005°18'0 0.0
2018-Jan-18 05:31N 36°08' W 005°18'0 0.0
2018-Jan-18 05:01N 36°08' W 005°18'0 0.0
2018-Jan-18 04:31N 36°08' W 005°18'0 0.0
2018-Jan-18 04:01N 36°08' W 005°18'0 0.0
2018-Jan-18 03:31N 36°08' W 005°18'0 0.0
2018-Jan-18 03:01N 36°08' W 005°18'0 0.0
2018-Jan-18 02:31N 36°08' W 005°18'0 0.0
2018-Jan-18 02:01N 36°08' W 005°18'0 0.0
2018-Jan-18 01:31N 36°08' W 005°18'0 0.0
2018-Jan-18 01:01N 36°08' W 005°18'0 0.0
2018-Jan-18 00:01N 36°08' W 005°18'0 0.0
2018-Jan-17 23:58N 36°08' W 005°18'  

Dump ship's entire track history